sensor_id;sensor_type;location;lat;lon;timestamp;temperature;humidity
78886;DHT22;68269;52.514;5.722;2023-06-24T00:00:37;20.70;61.10
78886;DHT22;68269;52.514;5.722;2023-06-24T00:03:06;20.60;61.00
78886;DHT22;68269;52.514;5.722;2023-06-24T00:05:36;20.60;61.10
78886;DHT22;68269;52.514;5.722;2023-06-24T00:08:05;20.50;61.20
78886;DHT22;68269;52.514;5.722;2023-06-24T00:10:34;20.50;61.20
78886;DHT22;68269;52.514;5.722;2023-06-24T00:13:04;20.50;61.20
78886;DHT22;68269;52.514;5.722;2023-06-24T00:15:36;20.50;61.20
78886;DHT22;68269;52.514;5.722;2023-06-24T00:18:09;20.50;61.30
78886;DHT22;68269;52.514;5.722;2023-06-24T00:20:38;20.50;61.30
78886;DHT22;68269;52.514;5.722;2023-06-24T00:23:09;20.50;61.20
78886;DHT22;68269;52.514;5.722;2023-06-24T00:25:40;20.50;61.30
78886;DHT22;68269;52.514;5.722;2023-06-24T00:28:10;20.50;61.30
78886;DHT22;68269;52.514;5.722;2023-06-24T00:30:42;20.40;61.30
78886;DHT22;68269;52.514;5.722;2023-06-24T00:33:11;20.40;61.40
78886;DHT22;68269;52.514;5.722;2023-06-24T00:35:40;20.30;61.40
78886;DHT22;68269;52.514;5.722;2023-06-24T00:38:10;20.40;61.40
78886;DHT22;68269;52.514;5.722;2023-06-24T00:40:39;20.30;61.40
78886;DHT22;68269;52.514;5.722;2023-06-24T00:43:09;20.40;61.40
78886;DHT22;68269;52.514;5.722;2023-06-24T00:45:41;20.30;61.40
78886;DHT22;68269;52.514;5.722;2023-06-24T00:48:15;20.30;61.50
78886;DHT22;68269;52.514;5.722;2023-06-24T00:50:44;20.30;61.50
78886;DHT22;68269;52.514;5.722;2023-06-24T00:53:15;20.30;61.60
78886;DHT22;68269;52.514;5.722;2023-06-24T00:55:45;20.20;61.60
78886;DHT22;68269;52.514;5.722;2023-06-24T00:58:15;20.20;61.60
78886;DHT22;68269;52.514;5.722;2023-06-24T01:00:49;20.10;61.70
78886;DHT22;68269;52.514;5.722;2023-06-24T01:03:24;20.10;61.70
78886;DHT22;68269;52.514;5.722;2023-06-24T01:05:54;20.10;61.80
78886;DHT22;68269;52.514;5.722;2023-06-24T01:08:23;20.00;61.70
78886;DHT22;68269;52.514;5.722;2023-06-24T01:10:54;20.00;61.80
78886;DHT22;68269;52.514;5.722;2023-06-24T01:13:23;20.00;61.90
78886;DHT22;68269;52.514;5.722;2023-06-24T01:15:57;20.00;61.90
78886;DHT22;68269;52.514;5.722;2023-06-24T01:18:34;20.00;62.00
78886;DHT22;68269;52.514;5.722;2023-06-24T01:21:08;20.00;62.00
78886;DHT22;68269;52.514;5.722;2023-06-24T01:27:14;19.90;62.00
78886;DHT22;68269;52.514;5.722;2023-06-24T01:33:03;19.80;62.00
78886;DHT22;68269;52.514;5.722;2023-06-24T01:35:36;19.70;62.10
78886;DHT22;68269;52.514;5.722;2023-06-24T01:38:08;19.70;62.10
78886;DHT22;68269;52.514;5.722;2023-06-24T01:40:43;19.70;62.10
78886;DHT22;68269;52.514;5.722;2023-06-24T01:43:14;19.70;62.20
78886;DHT22;68269;52.514;5.722;2023-06-24T01:45:49;19.70;62.20
78886;DHT22;68269;52.514;5.722;2023-06-24T01:48:24;19.70;62.20
78886;DHT22;68269;52.514;5.722;2023-06-24T01:50:58;19.60;62.30
78886;DHT22;68269;52.514;5.722;2023-06-24T01:53:29;19.60;62.30
78886;DHT22;68269;52.514;5.722;2023-06-24T01:56:02;19.50;62.30
78886;DHT22;68269;52.514;5.722;2023-06-24T01:58:33;19.50;62.40
78886;DHT22;68269;52.514;5.722;2023-06-24T02:01:04;19.50;62.40
78886;DHT22;68269;52.514;5.722;2023-06-24T02:03:38;19.50;62.50
78886;DHT22;68269;52.514;5.722;2023-06-24T02:06:07;19.50;62.50
78886;DHT22;68269;52.514;5.722;2023-06-24T02:08:38;19.50;62.30
78886;DHT22;68269;52.514;5.722;2023-06-24T02:11:09;19.40;62.40
78886;DHT22;68269;52.514;5.722;2023-06-24T02:13:40;19.40;62.50
78886;DHT22;68269;52.514;5.722;2023-06-24T02:16:17;19.40;62.50
78886;DHT22;68269;52.514;5.722;2023-06-24T02:18:49;19.30;62.60
78886;DHT22;68269;52.514;5.722;2023-06-24T02:21:19;19.40;62.70
78886;DHT22;68269;52.514;5.722;2023-06-24T02:23:49;19.30;62.60
78886;DHT22;68269;52.514;5.722;2023-06-24T02:26:19;19.30;62.70
78886;DHT22;68269;52.514;5.722;2023-06-24T02:28:49;19.30;62.70
78886;DHT22;68269;52.514;5.722;2023-06-24T02:31:19;19.30;62.80
78886;DHT22;68269;52.514;5.722;2023-06-24T02:33:51;19.30;62.90
78886;DHT22;68269;52.514;5.722;2023-06-24T02:36:21;19.30;62.90
78886;DHT22;68269;52.514;5.722;2023-06-24T02:38:50;19.30;62.90
78886;DHT22;68269;52.514;5.722;2023-06-24T02:41:19;19.30;62.90
78886;DHT22;68269;52.514;5.722;2023-06-24T02:43:49;19.20;62.90
78886;DHT22;68269;52.514;5.722;2023-06-24T02:46:19;19.20;63.00
78886;DHT22;68269;52.514;5.722;2023-06-24T02:48:53;19.20;63.00
78886;DHT22;68269;52.514;5.722;2023-06-24T02:51:22;19.20;63.00
78886;DHT22;68269;52.514;5.722;2023-06-24T02:53:52;19.20;63.00
78886;DHT22;68269;52.514;5.722;2023-06-24T02:56:34;19.20;63.10
78886;DHT22;68269;52.514;5.722;2023-06-24T02:59:12;19.20;63.10
78886;DHT22;68269;52.514;5.722;2023-06-24T03:01:42;19.20;63.10
78886;DHT22;68269;52.514;5.722;2023-06-24T03:04:14;19.10;63.20
78886;DHT22;68269;52.514;5.722;2023-06-24T03:06:44;19.10;63.20
78886;DHT22;68269;52.514;5.722;2023-06-24T03:09:16;19.10;63.20
78886;DHT22;68269;52.514;5.722;2023-06-24T03:11:47;19.10;63.20
78886;DHT22;68269;52.514;5.722;2023-06-24T03:14:25;19.10;63.20
78886;DHT22;68269;52.514;5.722;2023-06-24T03:16:54;19.10;63.30
78886;DHT22;68269;52.514;5.722;2023-06-24T03:19:28;19.10;63.30
78886;DHT22;68269;52.514;5.722;2023-06-24T03:21:57;19.10;63.30
78886;DHT22;68269;52.514;5.722;2023-06-24T03:24:27;19.10;63.30
78886;DHT22;68269;52.514;5.722;2023-06-24T03:26:57;19.10;63.40
78886;DHT22;68269;52.514;5.722;2023-06-24T03:29:33;19.10;63.40
78886;DHT22;68269;52.514;5.722;2023-06-24T03:32:12;19.10;63.40
78886;DHT22;68269;52.514;5.722;2023-06-24T03:34:45;19.10;63.40
78886;DHT22;68269;52.514;5.722;2023-06-24T03:37:14;19.10;63.50
78886;DHT22;68269;52.514;5.722;2023-06-24T03:39:44;19.10;63.50
78886;DHT22;68269;52.514;5.722;2023-06-24T03:42:13;19.00;63.60
78886;DHT22;68269;52.514;5.722;2023-06-24T03:44:43;19.00;63.60
78886;DHT22;68269;52.514;5.722;2023-06-24T03:47:13;19.00;63.60
78886;DHT22;68269;52.514;5.722;2023-06-24T03:49:45;19.00;63.60
78886;DHT22;68269;52.514;5.722;2023-06-24T03:52:16;19.00;63.70
78886;DHT22;68269;52.514;5.722;2023-06-24T03:54:45;19.00;63.70
78886;DHT22;68269;52.514;5.722;2023-06-24T03:57:15;18.90;63.70
78886;DHT22;68269;52.514;5.722;2023-06-24T03:59:44;18.90;63.70
78886;DHT22;68269;52.514;5.722;2023-06-24T04:02:14;19.00;63.70
78886;DHT22;68269;52.514;5.722;2023-06-24T04:04:46;19.00;63.80
78886;DHT22;68269;52.514;5.722;2023-06-24T04:07:16;19.00;63.80
78886;DHT22;68269;52.514;5.722;2023-06-24T04:09:55;19.00;63.80
78886;DHT22;68269;52.514;5.722;2023-06-24T04:12:24;19.00;63.90
78886;DHT22;68269;52.514;5.722;2023-06-24T04:14:54;19.00;63.90
78886;DHT22;68269;52.514;5.722;2023-06-24T04:17:23;19.00;64.00
78886;DHT22;68269;52.514;5.722;2023-06-24T04:19:55;19.00;64.00
78886;DHT22;68269;52.514;5.722;2023-06-24T04:22:25;19.00;64.10
78886;DHT22;68269;52.514;5.722;2023-06-24T04:24:58;19.00;64.10
78886;DHT22;68269;52.514;5.722;2023-06-24T04:27:27;19.00;64.10
78886;DHT22;68269;52.514;5.722;2023-06-24T04:29:56;19.10;64.20
78886;DHT22;68269;52.514;5.722;2023-06-24T04:32:26;19.10;64.10
78886;DHT22;68269;52.514;5.722;2023-06-24T04:34:58;19.10;64.20
78886;DHT22;68269;52.514;5.722;2023-06-24T04:37:28;19.20;64.30
78886;DHT22;68269;52.514;5.722;2023-06-24T04:39:57;19.20;64.20
78886;DHT22;68269;52.514;5.722;2023-06-24T04:42:26;19.30;64.20
78886;DHT22;68269;52.514;5.722;2023-06-24T04:44:56;19.30;64.20
78886;DHT22;68269;52.514;5.722;2023-06-24T04:47:25;19.40;64.20
78886;DHT22;68269;52.514;5.722;2023-06-24T04:49:57;19.40;64.10
78886;DHT22;68269;52.514;5.722;2023-06-24T04:52:26;19.50;64.00
78886;DHT22;68269;52.514;5.722;2023-06-24T04:54:56;19.50;63.90
78886;DHT22;68269;52.514;5.722;2023-06-24T04:57:27;19.60;63.80
78886;DHT22;68269;52.514;5.722;2023-06-24T04:59:57;19.70;63.80
78886;DHT22;68269;52.514;5.722;2023-06-24T05:02:27;19.70;63.80
78886;DHT22;68269;52.514;5.722;2023-06-24T05:04:58;19.70;63.80
78886;DHT22;68269;52.514;5.722;2023-06-24T05:07:28;19.70;63.70
78886;DHT22;68269;52.514;5.722;2023-06-24T05:09:57;19.70;63.70
78886;DHT22;68269;52.514;5.722;2023-06-24T05:12:26;19.80;63.70
78886;DHT22;68269;52.514;5.722;2023-06-24T05:14:56;19.80;63.70
78886;DHT22;68269;52.514;5.722;2023-06-24T05:17:25;19.90;63.70
78886;DHT22;68269;52.514;5.722;2023-06-24T05:19:54;19.90;63.70
78886;DHT22;68269;52.514;5.722;2023-06-24T05:22:26;20.00;63.60
78886;DHT22;68269;52.514;5.722;2023-06-24T05:24:55;20.00;63.50
78886;DHT22;68269;52.514;5.722;2023-06-24T05:27:25;20.10;63.50
78886;DHT22;68269;52.514;5.722;2023-06-24T05:29:54;20.20;63.40
78886;DHT22;68269;52.514;5.722;2023-06-24T05:32:23;20.30;63.20
78886;DHT22;68269;52.514;5.722;2023-06-24T05:34:53;20.30;63.00
78886;DHT22;68269;52.514;5.722;2023-06-24T05:37:22;20.40;62.90
78886;DHT22;68269;52.514;5.722;2023-06-24T05:39:54;20.50;62.80
78886;DHT22;68269;52.514;5.722;2023-06-24T05:42:23;20.50;62.70
78886;DHT22;68269;52.514;5.722;2023-06-24T05:44:53;20.50;62.60
78886;DHT22;68269;52.514;5.722;2023-06-24T05:47:22;20.60;62.50
78886;DHT22;68269;52.514;5.722;2023-06-24T05:49:51;20.60;62.50
78886;DHT22;68269;52.514;5.722;2023-06-24T05:52:21;20.70;62.50
78886;DHT22;68269;52.514;5.722;2023-06-24T05:54:53;20.70;62.50
78886;DHT22;68269;52.514;5.722;2023-06-24T05:57:22;20.70;62.40
78886;DHT22;68269;52.514;5.722;2023-06-24T05:59:51;20.70;62.30
78886;DHT22;68269;52.514;5.722;2023-06-24T06:02:20;20.80;62.20
78886;DHT22;68269;52.514;5.722;2023-06-24T06:04:50;20.90;62.20
78886;DHT22;68269;52.514;5.722;2023-06-24T06:07:19;21.00;62.10
78886;DHT22;68269;52.514;5.722;2023-06-24T06:09:48;21.00;62.00
78886;DHT22;68269;52.514;5.722;2023-06-24T06:12:20;21.10;61.90
78886;DHT22;68269;52.514;5.722;2023-06-24T06:14:50;21.10;61.90
78886;DHT22;68269;52.514;5.722;2023-06-24T06:17:19;21.20;61.80
78886;DHT22;68269;52.514;5.722;2023-06-24T06:19:48;21.30;61.70
78886;DHT22;68269;52.514;5.722;2023-06-24T06:22:17;21.30;61.70
78886;DHT22;68269;52.514;5.722;2023-06-24T06:24:47;21.30;61.70
78886;DHT22;68269;52.514;5.722;2023-06-24T06:27:16;21.40;61.60
78886;DHT22;68269;52.514;5.722;2023-06-24T06:29:48;21.50;61.50
78886;DHT22;68269;52.514;5.722;2023-06-24T06:32:17;21.50;61.40
78886;DHT22;68269;52.514;5.722;2023-06-24T06:34:46;21.50;61.30
78886;DHT22;68269;52.514;5.722;2023-06-24T06:37:16;21.60;61.10
78886;DHT22;68269;52.514;5.722;2023-06-24T06:39:45;21.60;61.10
78886;DHT22;68269;52.514;5.722;2023-06-24T06:42:16;21.60;61.10
78886;DHT22;68269;52.514;5.722;2023-06-24T06:44:48;21.60;60.90
78886;DHT22;68269;52.514;5.722;2023-06-24T06:47:17;21.60;60.90
78886;DHT22;68269;52.514;5.722;2023-06-24T06:49:46;21.60;60.80
78886;DHT22;68269;52.514;5.722;2023-06-24T06:52:16;21.60;60.80
78886;DHT22;68269;52.514;5.722;2023-06-24T06:54:45;21.60;60.70
78886;DHT22;68269;52.514;5.722;2023-06-24T06:57:14;21.60;60.70
78886;DHT22;68269;52.514;5.722;2023-06-24T06:59:44;21.70;60.70
78886;DHT22;68269;52.514;5.722;2023-06-24T07:02:15;21.70;60.70
78886;DHT22;68269;52.514;5.722;2023-06-24T07:04:45;21.70;60.70
78886;DHT22;68269;52.514;5.722;2023-06-24T07:07:14;21.70;60.60
78886;DHT22;68269;52.514;5.722;2023-06-24T07:09:43;21.70;60.50
78886;DHT22;68269;52.514;5.722;2023-06-24T07:12:14;21.70;60.50
78886;DHT22;68269;52.514;5.722;2023-06-24T07:14:43;21.70;60.50
78886;DHT22;68269;52.514;5.722;2023-06-24T07:17:15;21.70;60.50
78886;DHT22;68269;52.514;5.722;2023-06-24T07:19:44;21.80;60.50
78886;DHT22;68269;52.514;5.722;2023-06-24T07:22:13;21.80;60.40
78886;DHT22;68269;52.514;5.722;2023-06-24T07:24:43;21.90;60.40
78886;DHT22;68269;52.514;5.722;2023-06-24T07:27:12;21.90;60.30
78886;DHT22;68269;52.514;5.722;2023-06-24T07:29:41;21.90;60.30
78886;DHT22;68269;52.514;5.722;2023-06-24T07:32:11;21.90;60.20
78886;DHT22;68269;52.514;5.722;2023-06-24T07:34:42;22.00;60.20
78886;DHT22;68269;52.514;5.722;2023-06-24T07:37:12;22.00;60.20
78886;DHT22;68269;52.514;5.722;2023-06-24T07:39:41;22.10;60.20
78886;DHT22;68269;52.514;5.722;2023-06-24T07:42:10;22.10;60.20
78886;DHT22;68269;52.514;5.722;2023-06-24T07:44:44;22.20;60.20
78886;DHT22;68269;52.514;5.722;2023-06-24T07:47:14;22.20;60.00
78886;DHT22;68269;52.514;5.722;2023-06-24T07:49:46;22.30;59.80
78886;DHT22;68269;52.514;5.722;2023-06-24T07:52:15;22.40;59.70
78886;DHT22;68269;52.514;5.722;2023-06-24T07:54:45;22.50;59.70
78886;DHT22;68269;52.514;5.722;2023-06-24T07:57:14;22.50;59.60
78886;DHT22;68269;52.514;5.722;2023-06-24T07:59:43;22.60;59.50
78886;DHT22;68269;52.514;5.722;2023-06-24T08:02:13;22.70;59.50
78886;DHT22;68269;52.514;5.722;2023-06-24T08:04:45;22.70;59.50
78886;DHT22;68269;52.514;5.722;2023-06-24T08:07:14;22.70;59.60
78886;DHT22;68269;52.514;5.722;2023-06-24T08:09:43;22.70;59.50
78886;DHT22;68269;52.514;5.722;2023-06-24T08:12:13;22.70;59.50
78886;DHT22;68269;52.514;5.722;2023-06-24T08:14:42;22.70;59.50
78886;DHT22;68269;52.514;5.722;2023-06-24T08:17:11;22.70;59.50
78886;DHT22;68269;52.514;5.722;2023-06-24T08:19:40;22.80;59.50
78886;DHT22;68269;52.514;5.722;2023-06-24T08:22:12;22.80;59.50
78886;DHT22;68269;52.514;5.722;2023-06-24T08:24:42;22.80;59.50
78886;DHT22;68269;52.514;5.722;2023-06-24T08:27:11;22.80;59.50
78886;DHT22;68269;52.514;5.722;2023-06-24T08:29:40;22.90;59.40
78886;DHT22;68269;52.514;5.722;2023-06-24T08:32:09;23.00;59.30
78886;DHT22;68269;52.514;5.722;2023-06-24T08:34:39;23.10;59.30
78886;DHT22;68269;52.514;5.722;2023-06-24T08:37:09;23.30;59.10
78886;DHT22;68269;52.514;5.722;2023-06-24T08:39:41;23.40;59.00
78886;DHT22;68269;52.514;5.722;2023-06-24T08:42:10;23.50;58.90
78886;DHT22;68269;52.514;5.722;2023-06-24T08:44:39;23.60;58.90
78886;DHT22;68269;52.514;5.722;2023-06-24T08:47:09;23.70;58.70
78886;DHT22;68269;52.514;5.722;2023-06-24T08:49:46;23.80;58.70
78886;DHT22;68269;52.514;5.722;2023-06-24T08:52:16;23.90;58.60
78886;DHT22;68269;52.514;5.722;2023-06-24T08:54:50;24.00;58.70
78886;DHT22;68269;52.514;5.722;2023-06-24T08:57:20;24.20;58.50
78886;DHT22;68269;52.514;5.722;2023-06-24T08:59:49;24.20;58.60
78886;DHT22;68269;52.514;5.722;2023-06-24T09:02:18;24.30;58.50
78886;DHT22;68269;52.514;5.722;2023-06-24T09:04:48;24.40;58.50
78886;DHT22;68269;52.514;5.722;2023-06-24T09:07:28;24.40;58.40
78886;DHT22;68269;52.514;5.722;2023-06-24T09:10:00;24.40;58.40
78886;DHT22;68269;52.514;5.722;2023-06-24T09:12:32;24.50;58.30
78886;DHT22;68269;52.514;5.722;2023-06-24T09:15:03;24.50;58.20
78886;DHT22;68269;52.514;5.722;2023-06-24T09:17:32;24.50;58.10
78886;DHT22;68269;52.514;5.722;2023-06-24T09:20:06;24.60;58.10
78886;DHT22;68269;52.514;5.722;2023-06-24T09:22:40;24.60;58.00
78886;DHT22;68269;52.514;5.722;2023-06-24T09:25:16;24.70;57.90
78886;DHT22;68269;52.514;5.722;2023-06-24T09:27:49;24.70;57.80
78886;DHT22;68269;52.514;5.722;2023-06-24T09:30:20;24.80;57.70
78886;DHT22;68269;52.514;5.722;2023-06-24T09:32:50;24.80;57.60
78886;DHT22;68269;52.514;5.722;2023-06-24T09:35:20;24.80;57.60
78886;DHT22;68269;52.514;5.722;2023-06-24T09:37:51;25.00;57.60
78886;DHT22;68269;52.514;5.722;2023-06-24T09:40:23;25.00;57.60
78886;DHT22;68269;52.514;5.722;2023-06-24T09:42:53;25.00;57.50
78886;DHT22;68269;52.514;5.722;2023-06-24T09:45:25;25.10;57.40
78886;DHT22;68269;52.514;5.722;2023-06-24T09:47:55;25.20;57.40
78886;DHT22;68269;52.514;5.722;2023-06-24T09:50:24;25.20;57.40
78886;DHT22;68269;52.514;5.722;2023-06-24T09:52:57;25.30;57.40
78886;DHT22;68269;52.514;5.722;2023-06-24T09:55:29;25.40;57.30
78886;DHT22;68269;52.514;5.722;2023-06-24T09:57:58;25.40;57.20
78886;DHT22;68269;52.514;5.722;2023-06-24T10:00:30;25.50;57.20
78886;DHT22;68269;52.514;5.722;2023-06-24T10:03:00;25.60;57.20
78886;DHT22;68269;52.514;5.722;2023-06-24T10:05:29;25.70;56.90
78886;DHT22;68269;52.514;5.722;2023-06-24T10:07:59;25.80;56.70
78886;DHT22;68269;52.514;5.722;2023-06-24T10:10:32;25.80;56.50
78886;DHT22;68269;52.514;5.722;2023-06-24T10:13:02;25.80;56.40
78886;DHT22;68269;52.514;5.722;2023-06-24T10:15:32;25.90;56.40
78886;DHT22;68269;52.514;5.722;2023-06-24T10:18:02;26.00;56.20
78886;DHT22;68269;52.514;5.722;2023-06-24T10:20:36;26.00;56.10
78886;DHT22;68269;52.514;5.722;2023-06-24T10:23:06;26.00;55.90
78886;DHT22;68269;52.514;5.722;2023-06-24T10:25:38;26.10;55.90
78886;DHT22;68269;52.514;5.722;2023-06-24T10:28:08;26.20;55.70
78886;DHT22;68269;52.514;5.722;2023-06-24T10:30:37;26.40;55.60
78886;DHT22;68269;52.514;5.722;2023-06-24T10:33:10;26.50;55.50
78886;DHT22;68269;52.514;5.722;2023-06-24T10:35:42;26.60;55.30
78886;DHT22;68269;52.514;5.722;2023-06-24T10:38:11;26.70;55.20
78886;DHT22;68269;52.514;5.722;2023-06-24T10:40:43;26.80;55.10
78886;DHT22;68269;52.514;5.722;2023-06-24T10:43:26;26.90;55.00
78886;DHT22;68269;52.514;5.722;2023-06-24T10:45:57;27.00;54.70
78886;DHT22;68269;52.514;5.722;2023-06-24T10:48:27;27.10;54.70
78886;DHT22;68269;52.514;5.722;2023-06-24T10:50:56;27.20;54.60
78886;DHT22;68269;52.514;5.722;2023-06-24T10:53:26;27.30;54.50
78886;DHT22;68269;52.514;5.722;2023-06-24T10:56:00;27.30;54.30
78886;DHT22;68269;52.514;5.722;2023-06-24T10:58:29;27.40;54.30
78886;DHT22;68269;52.514;5.722;2023-06-24T11:01:07;27.40;54.20
78886;DHT22;68269;52.514;5.722;2023-06-24T11:03:40;27.50;54.20
78886;DHT22;68269;52.514;5.722;2023-06-24T11:06:10;27.80;54.10
78886;DHT22;68269;52.514;5.722;2023-06-24T11:08:44;27.90;53.90
78886;DHT22;68269;52.514;5.722;2023-06-24T11:11:23;28.10;53.70
78886;DHT22;68269;52.514;5.722;2023-06-24T11:13:52;27.90;53.80
78886;DHT22;68269;52.514;5.722;2023-06-24T11:16:22;27.90;54.00
78886;DHT22;68269;52.514;5.722;2023-06-24T11:18:51;27.90;54.00
78886;DHT22;68269;52.514;5.722;2023-06-24T11:21:21;27.90;53.80
78886;DHT22;68269;52.514;5.722;2023-06-24T11:24:01;27.80;53.70
78886;DHT22;68269;52.514;5.722;2023-06-24T11:26:32;27.80;53.50
78886;DHT22;68269;52.514;5.722;2023-06-24T11:29:09;27.80;53.30
78886;DHT22;68269;52.514;5.722;2023-06-24T11:31:38;27.90;53.10
78886;DHT22;68269;52.514;5.722;2023-06-24T11:34:09;28.10;52.90
78886;DHT22;68269;52.514;5.722;2023-06-24T11:36:38;28.20;52.90
78886;DHT22;68269;52.514;5.722;2023-06-24T11:39:08;28.30;52.90
78886;DHT22;68269;52.514;5.722;2023-06-24T11:41:40;28.40;53.10
78886;DHT22;68269;52.514;5.722;2023-06-24T11:44:09;28.30;53.20
78886;DHT22;68269;52.514;5.722;2023-06-24T11:46:39;28.10;53.40
78886;DHT22;68269;52.514;5.722;2023-06-24T11:49:09;28.20;53.40
78886;DHT22;68269;52.514;5.722;2023-06-24T11:51:46;28.30;53.20
78886;DHT22;68269;52.514;5.722;2023-06-24T11:54:17;28.30;52.90
78886;DHT22;68269;52.514;5.722;2023-06-24T11:56:52;28.30;52.80
78886;DHT22;68269;52.514;5.722;2023-06-24T11:59:23;28.40;52.60
78886;DHT22;68269;52.514;5.722;2023-06-24T12:01:54;28.50;52.60
78886;DHT22;68269;52.514;5.722;2023-06-24T12:04:28;28.60;52.40
78886;DHT22;68269;52.514;5.722;2023-06-24T12:06:58;28.70;52.10
78886;DHT22;68269;52.514;5.722;2023-06-24T12:09:28;28.70;52.00
78886;DHT22;68269;52.514;5.722;2023-06-24T12:12:00;28.90;51.80
78886;DHT22;68269;52.514;5.722;2023-06-24T12:14:29;28.90;51.40
78886;DHT22;68269;52.514;5.722;2023-06-24T12:16:58;28.80;51.50
78886;DHT22;68269;52.514;5.722;2023-06-24T12:19:28;28.60;51.70
78886;DHT22;68269;52.514;5.722;2023-06-24T12:21:57;28.60;51.60
78886;DHT22;68269;52.514;5.722;2023-06-24T12:24:26;28.70;51.40
78886;DHT22;68269;52.514;5.722;2023-06-24T12:26:56;28.80;51.20
78886;DHT22;68269;52.514;5.722;2023-06-24T12:29:28;28.70;51.10
78886;DHT22;68269;52.514;5.722;2023-06-24T12:31:57;28.50;51.20
78886;DHT22;68269;52.514;5.722;2023-06-24T12:34:26;28.50;51.30
78886;DHT22;68269;52.514;5.722;2023-06-24T12:36:55;28.60;51.10
78886;DHT22;68269;52.514;5.722;2023-06-24T12:39:25;28.80;50.90
78886;DHT22;68269;52.514;5.722;2023-06-24T12:41:54;29.00;50.80
78886;DHT22;68269;52.514;5.722;2023-06-24T12:44:24;29.10;50.80
78886;DHT22;68269;52.514;5.722;2023-06-24T12:46:56;29.10;50.80
78886;DHT22;68269;52.514;5.722;2023-06-24T12:49:25;28.90;51.10
78886;DHT22;68269;52.514;5.722;2023-06-24T12:51:54;28.60;51.30
78886;DHT22;68269;52.514;5.722;2023-06-24T12:54:24;28.50;51.50
78886;DHT22;68269;52.514;5.722;2023-06-24T12:56:53;28.30;51.60
78886;DHT22;68269;52.514;5.722;2023-06-24T12:59:23;28.20;51.70
78886;DHT22;68269;52.514;5.722;2023-06-24T13:01:56;28.10;51.70
78886;DHT22;68269;52.514;5.722;2023-06-24T13:04:25;28.10;51.80
78886;DHT22;68269;52.514;5.722;2023-06-24T13:06:54;28.00;51.80
78886;DHT22;68269;52.514;5.722;2023-06-24T13:09:24;27.90;51.80
78886;DHT22;68269;52.514;5.722;2023-06-24T13:11:53;27.90;51.70
78886;DHT22;68269;52.514;5.722;2023-06-24T13:14:22;27.80;51.70
78886;DHT22;68269;52.514;5.722;2023-06-24T13:16:56;27.70;51.80
78886;DHT22;68269;52.514;5.722;2023-06-24T13:19:25;27.70;51.90
78886;DHT22;68269;52.514;5.722;2023-06-24T13:21:54;27.70;51.90
78886;DHT22;68269;52.514;5.722;2023-06-24T13:24:23;27.60;51.90
78886;DHT22;68269;52.514;5.722;2023-06-24T13:26:53;27.60;51.90
78886;DHT22;68269;52.514;5.722;2023-06-24T13:29:22;27.60;51.80
78886;DHT22;68269;52.514;5.722;2023-06-24T13:31:56;27.80;51.80
78886;DHT22;68269;52.514;5.722;2023-06-24T13:34:25;28.10;51.50
78886;DHT22;68269;52.514;5.722;2023-06-24T13:36:54;28.30;51.40
78886;DHT22;68269;52.514;5.722;2023-06-24T13:39:24;28.50;51.40
78886;DHT22;68269;52.514;5.722;2023-06-24T13:41:54;28.70;51.20
78886;DHT22;68269;52.514;5.722;2023-06-24T13:44:23;28.90;51.00
78886;DHT22;68269;52.514;5.722;2023-06-24T13:46:55;28.90;51.00
78886;DHT22;68269;52.514;5.722;2023-06-24T13:49:24;28.80;51.10
78886;DHT22;68269;52.514;5.722;2023-06-24T13:51:53;28.90;51.20
78886;DHT22;68269;52.514;5.722;2023-06-24T13:54:23;28.90;51.30
78886;DHT22;68269;52.514;5.722;2023-06-24T13:56:53;28.90;51.40
78886;DHT22;68269;52.514;5.722;2023-06-24T13:59:23;28.90;51.40
78886;DHT22;68269;52.514;5.722;2023-06-24T14:01:55;28.70;51.30
78886;DHT22;68269;52.514;5.722;2023-06-24T14:04:24;28.60;51.40
78886;DHT22;68269;52.514;5.722;2023-06-24T14:06:53;28.70;51.40
78886;DHT22;68269;52.514;5.722;2023-06-24T14:09:22;28.90;51.40
78886;DHT22;68269;52.514;5.722;2023-06-24T14:11:52;29.00;51.40
78886;DHT22;68269;52.514;5.722;2023-06-24T14:14:22;29.20;51.30
78886;DHT22;68269;52.514;5.722;2023-06-24T14:16:51;29.40;51.20
78886;DHT22;68269;52.514;5.722;2023-06-24T14:19:23;29.50;51.20
78886;DHT22;68269;52.514;5.722;2023-06-24T14:21:52;29.70;51.10
78886;DHT22;68269;52.514;5.722;2023-06-24T14:24:21;29.80;51.20
78886;DHT22;68269;52.514;5.722;2023-06-24T14:26:51;29.70;51.40
78886;DHT22;68269;52.514;5.722;2023-06-24T14:29:20;29.50;51.60
78886;DHT22;68269;52.514;5.722;2023-06-24T14:31:50;29.40;51.80
78886;DHT22;68269;52.514;5.722;2023-06-24T14:34:21;29.40;51.80
78886;DHT22;68269;52.514;5.722;2023-06-24T14:36:51;29.40;51.80
78886;DHT22;68269;52.514;5.722;2023-06-24T14:39:20;29.30;51.90
78886;DHT22;68269;52.514;5.722;2023-06-24T14:41:49;29.40;51.90
78886;DHT22;68269;52.514;5.722;2023-06-24T14:44:19;29.50;51.90
78886;DHT22;68269;52.514;5.722;2023-06-24T14:46:48;29.70;51.70
78886;DHT22;68269;52.514;5.722;2023-06-24T14:49:17;29.90;51.40
78886;DHT22;68269;52.514;5.722;2023-06-24T14:51:49;30.00;51.20
78886;DHT22;68269;52.514;5.722;2023-06-24T14:54:18;30.10;51.20
78886;DHT22;68269;52.514;5.722;2023-06-24T14:56:48;30.20;51.20
78886;DHT22;68269;52.514;5.722;2023-06-24T14:59:17;30.10;51.30
78886;DHT22;68269;52.514;5.722;2023-06-24T15:01:46;30.10;51.50
78886;DHT22;68269;52.514;5.722;2023-06-24T15:04:16;30.10;51.70
78886;DHT22;68269;52.514;5.722;2023-06-24T15:06:45;30.20;51.70
78886;DHT22;68269;52.514;5.722;2023-06-24T15:09:17;30.30;51.80
78886;DHT22;68269;52.514;5.722;2023-06-24T15:11:46;30.40;51.70
78886;DHT22;68269;52.514;5.722;2023-06-24T15:14:15;30.30;51.90
78886;DHT22;68269;52.514;5.722;2023-06-24T15:16:45;30.40;51.90
78886;DHT22;68269;52.514;5.722;2023-06-24T15:19:15;30.40;51.90
78886;DHT22;68269;52.514;5.722;2023-06-24T15:21:45;30.50;52.00
78886;DHT22;68269;52.514;5.722;2023-06-24T15:24:17;30.50;51.90
78886;DHT22;68269;52.514;5.722;2023-06-24T15:26:46;30.50;51.80
78886;DHT22;68269;52.514;5.722;2023-06-24T15:29:15;30.60;51.70
78886;DHT22;68269;52.514;5.722;2023-06-24T15:31:44;30.60;51.60
78886;DHT22;68269;52.514;5.722;2023-06-24T15:34:14;30.60;51.60
78886;DHT22;68269;52.514;5.722;2023-06-24T15:36:43;30.60;51.70
78886;DHT22;68269;52.514;5.722;2023-06-24T15:39:12;30.50;51.70
78886;DHT22;68269;52.514;5.722;2023-06-24T15:41:46;30.50;51.60
78886;DHT22;68269;52.514;5.722;2023-06-24T15:44:16;30.50;51.50
78886;DHT22;68269;52.514;5.722;2023-06-24T15:46:46;30.50;51.50
78886;DHT22;68269;52.514;5.722;2023-06-24T15:49:15;30.60;51.50
78886;DHT22;68269;52.514;5.722;2023-06-24T15:51:45;30.60;51.40
78886;DHT22;68269;52.514;5.722;2023-06-24T15:54:14;30.50;51.40
78886;DHT22;68269;52.514;5.722;2023-06-24T15:56:46;30.50;51.50